AirNav   Everest Fuels
 
 980 users online  

84ND Kyllo Airport
Mc Canna, North Dakota, USA

GOING TO MC CANNA?


FAA INFORMATION EFFECTIVE 03 NOVEMBER 2022

Location

FAA Identifier: 84ND
Lat/Long: 48-00-02.9720N 097-45-25.3210W
48-00.049533N 097-45.422017W
48.0008256,-97.7570336
(estimated)
Elevation: 1150 ft. / 351 m (estimated)
Variation: 07E (1985)
From city: 2 miles W of MC CANNA, ND
Time zone: UTC -6 (UTC -5 during Daylight Saving Time)
Zip code: 58251

Airport Operations

Airport use: Private use. Permission required prior to landing
Activation date: 11/1980
Control tower: no
ARTCC: MINNEAPOLIS CENTER
FSS: GRAND FORKS FLIGHT SERVICE STATION
Attendance: UNATNDD
Wind indicator: yes
Segmented circle: no

Nearby radio navigation aids

VOR radial/distance  VOR name  Freq  Var
GFKr268/23.1GRAND FORKS VOR/DME114.3009E

Airport Services

Runway Information

Runway 17L/35R

Dimensions: 1850 x 50 ft. / 564 x 15 m
Surface: turf
RUNWAY 17L  RUNWAY 35R
Traffic pattern: leftleft

Runway 17R/35L

Dimensions: 1550 x 50 ft. / 472 x 15 m
Surface: turf
RUNWAY 17R  RUNWAY 35L
Traffic pattern: leftleft
Obstructions: 30 ft. pline, 800 ft. from runwaynone

Airport Ownership and Management from official FAA records

Ownership: Privately-owned
Owner: DENNIS R. KYLLO
6710 E DODGE ST
MESA, AZ 85205-6833
Phone 701-397-5250
Manager: KEVIN. KYLLO
4311 23ND AVE
LARIMORE, ND 58251-6833
Phone (218) 791-0421

Airport Operational Statistics

Aircraft based on the field: 1
Single engine airplanes: 1
    

Additional Remarks

FOR CD CTC MINNEAPOLIS ARTCC AT 651-463-5588.

Instrument Procedures

There are no published instrument procedures at 84ND.

Some nearby airports with instrument procedures:

KRDR - Grand Forks Air Force Base (15 nm E)
4V4 - Northwood Municipal Airport-Vince Field (18 nm S)
5L0 - Lakota Municipal Airport (23 nm W)
KGFK - Grand Forks International Airport (24 nm E)
KGAF - Hutson Field Airport (29 nm NE)
 
Loc | Ops | Rwys | IFR | FBO | Links
Com | Nav | Svcs | Stats | Notes

Bismarck Aero Center
AirBoss

 
Area around 84ND (Kyllo Airport)
 
Road maps at: MapQuest Bing Google
 
Aerial photo
No photo
 
Sectional chart

 
Airport distance calculator
Flying to Kyllo Airport? Find the distance to fly.

From to 84ND

Sunrise and sunset
Times for 26-Nov-2022
 Local
(UTC-6)
 Zulu
(UTC)
Morning civil twilight07:1913:19
Sunrise07:5413:54
Sunset16:4222:42
Evening civil twilight17:1723:17

Current date and time
Zulu (UTC)  26-Nov-2022 15:42:35
Local (UTC-6)  26-Nov-2022 09:42:35
 
METAR
KRDR 
14nm E 
261455Z AUTO 33009KT 10SM SCT210 03/M01 A2966 RMK AO2 SLP057 T00271006 53021 $
KGFK 
23nm E 
261453Z 32010KT 10SM BKN210 03/M01 A2967 RMK AO2 SLP057 T00281006 53018
KGAF 
29nm NE 
261515Z AUTO 32010G16KT 10SM CLR 03/00 A2969 RMK AO2
TAF
NOTAMs
Click for the latest NOTAMs
NOTAMs are issued by the DoD/FAA and will open in a separate window not controlled by AirNav.

 

 
 

Would you like to see your business listed on this page?

 If your business provides an interesting product or service to pilots, flight crews, aircraft, or users of the Kyllo Airport, you should consider listing it here.  To start the listing process, click on the button below
 
Add a business
 

Other Pages about Kyllo Airport

Update a link
 
Copyright © AirNav, LLC. All rights reserved. Privacy Policy  Contact